sensor_id;sensor_type;location;lat;lon;timestamp;temperature;humidity
3846;DHT22;1938;50.812;7.738;2023-11-21T00:00:54;6.30;99.90
3846;DHT22;1938;50.812;7.738;2023-11-21T00:03:20;6.30;99.90
3846;DHT22;1938;50.812;7.738;2023-11-21T00:05:48;6.30;99.90
3846;DHT22;1938;50.812;7.738;2023-11-21T00:08:14;6.20;99.90
3846;DHT22;1938;50.812;7.738;2023-11-21T00:10:39;6.20;99.90
3846;DHT22;1938;50.812;7.738;2023-11-21T00:13:05;6.20;99.90
3846;DHT22;1938;50.812;7.738;2023-11-21T00:15:32;6.20;99.90
3846;DHT22;1938;50.812;7.738;2023-11-21T00:17:57;6.20;99.90
3846;DHT22;1938;50.812;7.738;2023-11-21T00:20:23;6.20;99.90
3846;DHT22;1938;50.812;7.738;2023-11-21T00:22:49;6.30;99.90
3846;DHT22;1938;50.812;7.738;2023-11-21T00:25:14;6.20;99.90
3846;DHT22;1938;50.812;7.738;2023-11-21T00:27:41;6.00;99.90
3846;DHT22;1938;50.812;7.738;2023-11-21T00:30:08;5.90;99.90
3846;DHT22;1938;50.812;7.738;2023-11-21T00:32:36;5.90;99.90
3846;DHT22;1938;50.812;7.738;2023-11-21T00:35:02;5.90;99.90
3846;DHT22;1938;50.812;7.738;2023-11-21T00:37:28;5.90;99.90
3846;DHT22;1938;50.812;7.738;2023-11-21T00:39:53;5.90;99.90
3846;DHT22;1938;50.812;7.738;2023-11-21T00:42:19;5.90;99.90
3846;DHT22;1938;50.812;7.738;2023-11-21T00:44:44;6.00;99.90
3846;DHT22;1938;50.812;7.738;2023-11-21T00:47:10;6.10;99.90
3846;DHT22;1938;50.812;7.738;2023-11-21T00:49:36;6.00;99.90
3846;DHT22;1938;50.812;7.738;2023-11-21T00:52:01;6.10;99.90
3846;DHT22;1938;50.812;7.738;2023-11-21T00:54:28;6.10;99.90
3846;DHT22;1938;50.812;7.738;2023-11-21T00:56:53;6.00;99.90
3846;DHT22;1938;50.812;7.738;2023-11-21T00:59:19;6.20;99.90
3846;DHT22;1938;50.812;7.738;2023-11-21T01:01:44;6.20;99.90
3846;DHT22;1938;50.812;7.738;2023-11-21T01:04:10;6.20;99.90
3846;DHT22;1938;50.812;7.738;2023-11-21T01:06:36;6.20;99.90
3846;DHT22;1938;50.812;7.738;2023-11-21T01:09:03;6.20;99.90
3846;DHT22;1938;50.812;7.738;2023-11-21T01:11:36;6.30;99.90
3846;DHT22;1938;50.812;7.738;2023-11-21T01:14:03;6.30;99.90
3846;DHT22;1938;50.812;7.738;2023-11-21T01:16:29;6.30;99.90
3846;DHT22;1938;50.812;7.738;2023-11-21T01:18:56;6.40;99.90
3846;DHT22;1938;50.812;7.738;2023-11-21T01:21:23;6.30;99.90
3846;DHT22;1938;50.812;7.738;2023-11-21T01:23:49;6.20;99.90
3846;DHT22;1938;50.812;7.738;2023-11-21T01:26:14;6.10;99.90
3846;DHT22;1938;50.812;7.738;2023-11-21T01:28:40;6.20;99.90
3846;DHT22;1938;50.812;7.738;2023-11-21T01:31:05;6.20;99.90
3846;DHT22;1938;50.812;7.738;2023-11-21T01:33:32;6.20;99.90
3846;DHT22;1938;50.812;7.738;2023-11-21T01:35:58;6.10;99.90
3846;DHT22;1938;50.812;7.738;2023-11-21T01:38:25;6.00;99.90
3846;DHT22;1938;50.812;7.738;2023-11-21T01:40:50;6.10;99.90
3846;DHT22;1938;50.812;7.738;2023-11-21T01:43:16;6.10;99.90
3846;DHT22;1938;50.812;7.738;2023-11-21T01:45:42;6.00;99.90
3846;DHT22;1938;50.812;7.738;2023-11-21T01:48:08;6.00;99.90
3846;DHT22;1938;50.812;7.738;2023-11-21T01:50:34;5.90;99.90
3846;DHT22;1938;50.812;7.738;2023-11-21T01:53:00;5.90;99.90
3846;DHT22;1938;50.812;7.738;2023-11-21T01:55:27;5.90;99.90
3846;DHT22;1938;50.812;7.738;2023-11-21T01:57:54;6.00;99.90
3846;DHT22;1938;50.812;7.738;2023-11-21T02:00:20;6.10;99.90
3846;DHT22;1938;50.812;7.738;2023-11-21T02:02:47;6.10;99.90
3846;DHT22;1938;50.812;7.738;2023-11-21T02:05:15;6.10;99.90
3846;DHT22;1938;50.812;7.738;2023-11-21T02:07:42;6.20;99.90
3846;DHT22;1938;50.812;7.738;2023-11-21T02:10:08;6.10;99.90
3846;DHT22;1938;50.812;7.738;2023-11-21T02:12:35;6.00;99.90
3846;DHT22;1938;50.812;7.738;2023-11-21T02:15:02;6.00;99.90
3846;DHT22;1938;50.812;7.738;2023-11-21T02:17:31;6.00;99.90
3846;DHT22;1938;50.812;7.738;2023-11-21T02:19:58;6.00;99.90
3846;DHT22;1938;50.812;7.738;2023-11-21T02:22:27;6.10;99.90
3846;DHT22;1938;50.812;7.738;2023-11-21T02:24:56;6.10;99.90
3846;DHT22;1938;50.812;7.738;2023-11-21T02:27:23;6.20;99.90
3846;DHT22;1938;50.812;7.738;2023-11-21T02:29:50;6.20;99.90
3846;DHT22;1938;50.812;7.738;2023-11-21T02:32:16;6.20;99.90
3846;DHT22;1938;50.812;7.738;2023-11-21T02:34:44;6.40;99.90
3846;DHT22;1938;50.812;7.738;2023-11-21T02:37:10;6.30;99.90
3846;DHT22;1938;50.812;7.738;2023-11-21T02:39:36;6.30;99.90
3846;DHT22;1938;50.812;7.738;2023-11-21T02:42:03;6.20;99.90
3846;DHT22;1938;50.812;7.738;2023-11-21T02:44:29;6.20;99.90
3846;DHT22;1938;50.812;7.738;2023-11-21T02:46:54;6.20;99.90
3846;DHT22;1938;50.812;7.738;2023-11-21T02:49:20;6.10;99.90
3846;DHT22;1938;50.812;7.738;2023-11-21T02:51:46;6.00;99.90
3846;DHT22;1938;50.812;7.738;2023-11-21T02:54:12;6.00;99.90
3846;DHT22;1938;50.812;7.738;2023-11-21T02:56:38;5.90;99.90
3846;DHT22;1938;50.812;7.738;2023-11-21T02:59:05;5.90;99.90
3846;DHT22;1938;50.812;7.738;2023-11-21T03:01:30;6.00;99.90
3846;DHT22;1938;50.812;7.738;2023-11-21T03:03:57;6.00;99.90
3846;DHT22;1938;50.812;7.738;2023-11-21T03:06:23;6.00;99.90
3846;DHT22;1938;50.812;7.738;2023-11-21T03:08:49;6.00;99.90
3846;DHT22;1938;50.812;7.738;2023-11-21T03:11:14;6.00;99.90
3846;DHT22;1938;50.812;7.738;2023-11-21T03:13:40;6.00;99.90
3846;DHT22;1938;50.812;7.738;2023-11-21T03:16:08;6.00;99.90
3846;DHT22;1938;50.812;7.738;2023-11-21T03:18:34;6.00;99.90
3846;DHT22;1938;50.812;7.738;2023-11-21T03:21:00;6.10;99.90
3846;DHT22;1938;50.812;7.738;2023-11-21T03:23:25;6.10;99.90
3846;DHT22;1938;50.812;7.738;2023-11-21T03:25:51;6.10;99.90
3846;DHT22;1938;50.812;7.738;2023-11-21T03:28:16;6.10;99.90
3846;DHT22;1938;50.812;7.738;2023-11-21T03:30:42;6.20;99.90
3846;DHT22;1938;50.812;7.738;2023-11-21T03:33:08;6.10;99.90
3846;DHT22;1938;50.812;7.738;2023-11-21T03:35:34;6.10;99.90
3846;DHT22;1938;50.812;7.738;2023-11-21T03:37:59;6.10;99.90
3846;DHT22;1938;50.812;7.738;2023-11-21T03:40:25;6.10;99.90
3846;DHT22;1938;50.812;7.738;2023-11-21T03:42:51;6.10;99.90
3846;DHT22;1938;50.812;7.738;2023-11-21T03:45:17;6.10;99.90
3846;DHT22;1938;50.812;7.738;2023-11-21T03:47:43;6.10;99.90
3846;DHT22;1938;50.812;7.738;2023-11-21T03:50:08;6.10;99.90
3846;DHT22;1938;50.812;7.738;2023-11-21T03:52:35;6.10;99.90
3846;DHT22;1938;50.812;7.738;2023-11-21T03:55:02;6.10;99.90
3846;DHT22;1938;50.812;7.738;2023-11-21T03:57:28;6.00;99.90
3846;DHT22;1938;50.812;7.738;2023-11-21T03:59:53;6.00;99.90
3846;DHT22;1938;50.812;7.738;2023-11-21T04:02:19;5.90;99.90
3846;DHT22;1938;50.812;7.738;2023-11-21T04:04:45;6.00;99.90
3846;DHT22;1938;50.812;7.738;2023-11-21T04:07:10;5.90;99.90
3846;DHT22;1938;50.812;7.738;2023-11-21T04:09:36;5.90;99.90
3846;DHT22;1938;50.812;7.738;2023-11-21T04:12:02;5.90;99.90
3846;DHT22;1938;50.812;7.738;2023-11-21T04:14:28;5.90;99.90
3846;DHT22;1938;50.812;7.738;2023-11-21T04:16:53;6.00;99.90
3846;DHT22;1938;50.812;7.738;2023-11-21T04:19:19;5.90;99.90
3846;DHT22;1938;50.812;7.738;2023-11-21T04:21:45;5.90;99.90
3846;DHT22;1938;50.812;7.738;2023-11-21T04:24:11;5.90;99.90
3846;DHT22;1938;50.812;7.738;2023-11-21T04:26:36;5.90;99.90
3846;DHT22;1938;50.812;7.738;2023-11-21T04:29:03;5.90;99.90
3846;DHT22;1938;50.812;7.738;2023-11-21T04:31:30;5.90;99.90
3846;DHT22;1938;50.812;7.738;2023-11-21T04:33:56;5.90;99.90
3846;DHT22;1938;50.812;7.738;2023-11-21T04:36:21;6.00;99.90
3846;DHT22;1938;50.812;7.738;2023-11-21T04:38:47;5.90;99.90
3846;DHT22;1938;50.812;7.738;2023-11-21T04:41:12;5.90;99.90
3846;DHT22;1938;50.812;7.738;2023-11-21T04:43:39;6.00;99.90
3846;DHT22;1938;50.812;7.738;2023-11-21T04:46:04;6.10;99.90
3846;DHT22;1938;50.812;7.738;2023-11-21T04:48:30;6.10;99.90
3846;DHT22;1938;50.812;7.738;2023-11-21T04:50:56;6.10;99.90
3846;DHT22;1938;50.812;7.738;2023-11-21T04:53:21;6.10;99.90
3846;DHT22;1938;50.812;7.738;2023-11-21T04:55:47;6.00;99.90
3846;DHT22;1938;50.812;7.738;2023-11-21T04:58:14;6.00;99.90
3846;DHT22;1938;50.812;7.738;2023-11-21T05:00:39;6.00;99.90
3846;DHT22;1938;50.812;7.738;2023-11-21T05:03:06;5.90;99.90
3846;DHT22;1938;50.812;7.738;2023-11-21T05:05:32;5.90;99.90
3846;DHT22;1938;50.812;7.738;2023-11-21T05:07:59;5.90;99.90
3846;DHT22;1938;50.812;7.738;2023-11-21T05:10:26;6.20;99.90
3846;DHT22;1938;50.812;7.738;2023-11-21T05:12:51;6.70;99.90
3846;DHT22;1938;50.812;7.738;2023-11-21T05:15:17;6.70;99.90
3846;DHT22;1938;50.812;7.738;2023-11-21T05:17:43;6.80;99.90
3846;DHT22;1938;50.812;7.738;2023-11-21T05:20:13;6.40;99.90
3846;DHT22;1938;50.812;7.738;2023-11-21T05:22:40;6.30;99.90
3846;DHT22;1938;50.812;7.738;2023-11-21T05:25:07;6.30;99.90
3846;DHT22;1938;50.812;7.738;2023-11-21T05:27:34;6.40;99.90
3846;DHT22;1938;50.812;7.738;2023-11-21T05:30:02;6.20;99.90
3846;DHT22;1938;50.812;7.738;2023-11-21T05:32:30;6.30;99.90
3846;DHT22;1938;50.812;7.738;2023-11-21T05:34:56;6.30;99.90
3846;DHT22;1938;50.812;7.738;2023-11-21T05:37:21;6.20;99.90
3846;DHT22;1938;50.812;7.738;2023-11-21T05:39:48;6.00;99.90
3846;DHT22;1938;50.812;7.738;2023-11-21T05:42:14;6.00;99.90
3846;DHT22;1938;50.812;7.738;2023-11-21T05:44:41;5.90;99.90
3846;DHT22;1938;50.812;7.738;2023-11-21T05:47:08;5.80;99.90
3846;DHT22;1938;50.812;7.738;2023-11-21T05:49:34;6.00;99.90
3846;DHT22;1938;50.812;7.738;2023-11-21T05:52:00;6.20;99.90
3846;DHT22;1938;50.812;7.738;2023-11-21T05:54:26;6.40;99.90
3846;DHT22;1938;50.812;7.738;2023-11-21T05:56:51;6.10;99.90
3846;DHT22;1938;50.812;7.738;2023-11-21T05:59:17;6.00;99.90
3846;DHT22;1938;50.812;7.738;2023-11-21T06:01:43;6.20;99.90
3846;DHT22;1938;50.812;7.738;2023-11-21T06:04:11;5.90;99.90
3846;DHT22;1938;50.812;7.738;2023-11-21T06:06:36;5.80;99.90
3846;DHT22;1938;50.812;7.738;2023-11-21T06:09:02;5.80;99.90
3846;DHT22;1938;50.812;7.738;2023-11-21T06:11:28;5.80;99.90
3846;DHT22;1938;50.812;7.738;2023-11-21T06:13:54;5.90;99.90
3846;DHT22;1938;50.812;7.738;2023-11-21T06:16:20;5.90;99.90
3846;DHT22;1938;50.812;7.738;2023-11-21T06:18:47;5.90;99.90
3846;DHT22;1938;50.812;7.738;2023-11-21T06:21:12;5.80;99.90
3846;DHT22;1938;50.812;7.738;2023-11-21T06:23:39;5.80;99.90
3846;DHT22;1938;50.812;7.738;2023-11-21T06:26:05;5.80;99.90
3846;DHT22;1938;50.812;7.738;2023-11-21T06:28:31;5.80;99.90
3846;DHT22;1938;50.812;7.738;2023-11-21T06:30:57;5.70;99.90
3846;DHT22;1938;50.812;7.738;2023-11-21T06:33:32;5.70;99.90
3846;DHT22;1938;50.812;7.738;2023-11-21T06:35:57;5.70;99.90
3846;DHT22;1938;50.812;7.738;2023-11-21T06:38:23;5.80;99.90
3846;DHT22;1938;50.812;7.738;2023-11-21T06:40:50;5.90;99.90
3846;DHT22;1938;50.812;7.738;2023-11-21T06:43:15;5.90;99.90
3846;DHT22;1938;50.812;7.738;2023-11-21T06:45:41;5.80;99.90
3846;DHT22;1938;50.812;7.738;2023-11-21T06:48:07;5.80;99.90
3846;DHT22;1938;50.812;7.738;2023-11-21T06:50:32;5.80;99.90
3846;DHT22;1938;50.812;7.738;2023-11-21T06:52:58;5.70;99.90
3846;DHT22;1938;50.812;7.738;2023-11-21T06:55:23;5.80;99.90
3846;DHT22;1938;50.812;7.738;2023-11-21T06:57:49;5.90;99.90
3846;DHT22;1938;50.812;7.738;2023-11-21T07:00:16;6.00;99.90
3846;DHT22;1938;50.812;7.738;2023-11-21T07:02:43;6.10;99.90
3846;DHT22;1938;50.812;7.738;2023-11-21T07:05:09;6.50;99.90
3846;DHT22;1938;50.812;7.738;2023-11-21T07:07:34;6.40;99.90
3846;DHT22;1938;50.812;7.738;2023-11-21T07:10:04;6.40;99.90
3846;DHT22;1938;50.812;7.738;2023-11-21T07:12:31;6.50;99.90
3846;DHT22;1938;50.812;7.738;2023-11-21T07:14:58;6.60;99.90
3846;DHT22;1938;50.812;7.738;2023-11-21T07:17:23;6.70;99.90
3846;DHT22;1938;50.812;7.738;2023-11-21T07:19:49;6.70;99.90
3846;DHT22;1938;50.812;7.738;2023-11-21T07:22:15;6.70;99.90
3846;DHT22;1938;50.812;7.738;2023-11-21T07:24:50;6.80;99.90
3846;DHT22;1938;50.812;7.738;2023-11-21T07:27:18;6.80;99.90
3846;DHT22;1938;50.812;7.738;2023-11-21T07:29:44;6.80;99.90
3846;DHT22;1938;50.812;7.738;2023-11-21T07:32:09;6.80;99.90
3846;DHT22;1938;50.812;7.738;2023-11-21T07:34:36;6.80;99.90
3846;DHT22;1938;50.812;7.738;2023-11-21T07:37:02;6.90;99.90
3846;DHT22;1938;50.812;7.738;2023-11-21T07:39:28;6.90;99.90
3846;DHT22;1938;50.812;7.738;2023-11-21T07:41:55;6.90;99.90
3846;DHT22;1938;50.812;7.738;2023-11-21T07:44:21;7.00;99.90
3846;DHT22;1938;50.812;7.738;2023-11-21T07:46:47;7.10;99.90
3846;DHT22;1938;50.812;7.738;2023-11-21T07:49:13;7.10;99.90
3846;DHT22;1938;50.812;7.738;2023-11-21T07:51:43;7.20;99.90
3846;DHT22;1938;50.812;7.738;2023-11-21T07:54:09;7.20;99.90
3846;DHT22;1938;50.812;7.738;2023-11-21T07:56:35;7.30;99.90
3846;DHT22;1938;50.812;7.738;2023-11-21T07:59:01;7.40;99.90
3846;DHT22;1938;50.812;7.738;2023-11-21T08:01:27;7.40;99.90
3846;DHT22;1938;50.812;7.738;2023-11-21T08:03:54;7.50;99.90
3846;DHT22;1938;50.812;7.738;2023-11-21T08:06:23;7.40;99.90
3846;DHT22;1938;50.812;7.738;2023-11-21T08:08:49;7.00;99.90
3846;DHT22;1938;50.812;7.738;2023-11-21T08:11:14;6.40;99.90
3846;DHT22;1938;50.812;7.738;2023-11-21T08:13:40;6.20;99.90
3846;DHT22;1938;50.812;7.738;2023-11-21T08:16:06;6.10;99.90
3846;DHT22;1938;50.812;7.738;2023-11-21T08:18:32;6.00;99.90
3846;DHT22;1938;50.812;7.738;2023-11-21T08:20:59;6.10;99.90
3846;DHT22;1938;50.812;7.738;2023-11-21T08:23:25;6.20;99.90
3846;DHT22;1938;50.812;7.738;2023-11-21T08:25:53;6.20;99.90
3846;DHT22;1938;50.812;7.738;2023-11-21T08:28:19;6.30;99.90
3846;DHT22;1938;50.812;7.738;2023-11-21T08:30:45;6.30;99.90
3846;DHT22;1938;50.812;7.738;2023-11-21T08:33:10;6.30;99.90
3846;DHT22;1938;50.812;7.738;2023-11-21T08:35:39;6.30;99.90
3846;DHT22;1938;50.812;7.738;2023-11-21T08:38:05;6.30;99.90
3846;DHT22;1938;50.812;7.738;2023-11-21T08:40:31;6.30;99.90
3846;DHT22;1938;50.812;7.738;2023-11-21T08:42:58;6.40;99.90
3846;DHT22;1938;50.812;7.738;2023-11-21T08:45:26;6.50;99.90
3846;DHT22;1938;50.812;7.738;2023-11-21T08:47:52;7.00;99.90
3846;DHT22;1938;50.812;7.738;2023-11-21T08:50:18;7.30;99.90
3846;DHT22;1938;50.812;7.738;2023-11-21T08:52:45;7.60;99.90
3846;DHT22;1938;50.812;7.738;2023-11-21T08:55:11;8.00;99.90
3846;DHT22;1938;50.812;7.738;2023-11-21T08:57:41;8.30;99.90
3846;DHT22;1938;50.812;7.738;2023-11-21T09:00:08;8.30;99.90
3846;DHT22;1938;50.812;7.738;2023-11-21T09:02:42;8.30;99.90
3846;DHT22;1938;50.812;7.738;2023-11-21T09:05:09;8.10;99.90
3846;DHT22;1938;50.812;7.738;2023-11-21T09:07:35;7.90;99.90
3846;DHT22;1938;50.812;7.738;2023-11-21T09:10:02;7.70;99.90
3846;DHT22;1938;50.812;7.738;2023-11-21T09:12:28;7.60;99.90
3846;DHT22;1938;50.812;7.738;2023-11-21T09:14:53;7.50;99.90
3846;DHT22;1938;50.812;7.738;2023-11-21T09:17:19;7.50;99.90
3846;DHT22;1938;50.812;7.738;2023-11-21T09:19:45;7.40;99.90
3846;DHT22;1938;50.812;7.738;2023-11-21T09:22:15;7.40;99.90
3846;DHT22;1938;50.812;7.738;2023-11-21T09:24:41;7.30;99.90
3846;DHT22;1938;50.812;7.738;2023-11-21T09:27:08;7.20;99.90
3846;DHT22;1938;50.812;7.738;2023-11-21T09:29:37;7.10;99.90
3846;DHT22;1938;50.812;7.738;2023-11-21T09:32:06;7.20;99.90
3846;DHT22;1938;50.812;7.738;2023-11-21T09:34:34;7.30;99.90
3846;DHT22;1938;50.812;7.738;2023-11-21T09:37:05;7.40;99.90
3846;DHT22;1938;50.812;7.738;2023-11-21T09:39:34;7.30;99.90
3846;DHT22;1938;50.812;7.738;2023-11-21T09:42:28;7.40;99.90
3846;DHT22;1938;50.812;7.738;2023-11-21T09:44:58;7.30;99.90
3846;DHT22;1938;50.812;7.738;2023-11-21T09:47:26;7.30;99.90
3846;DHT22;1938;50.812;7.738;2023-11-21T09:49:54;7.30;99.90
3846;DHT22;1938;50.812;7.738;2023-11-21T09:52:26;7.40;99.90
3846;DHT22;1938;50.812;7.738;2023-11-21T09:54:52;7.30;99.90
3846;DHT22;1938;50.812;7.738;2023-11-21T09:57:24;7.40;99.90
3846;DHT22;1938;50.812;7.738;2023-11-21T09:59:54;7.30;99.90
3846;DHT22;1938;50.812;7.738;2023-11-21T10:02:26;7.30;99.90
3846;DHT22;1938;50.812;7.738;2023-11-21T10:04:54;7.30;99.90
3846;DHT22;1938;50.812;7.738;2023-11-21T10:07:21;7.40;99.90
3846;DHT22;1938;50.812;7.738;2023-11-21T10:09:47;7.40;99.90
3846;DHT22;1938;50.812;7.738;2023-11-21T10:12:15;7.50;99.90
3846;DHT22;1938;50.812;7.738;2023-11-21T10:14:42;7.40;99.90
3846;DHT22;1938;50.812;7.738;2023-11-21T10:17:10;7.40;99.90
3846;DHT22;1938;50.812;7.738;2023-11-21T10:19:39;7.50;99.90
3846;DHT22;1938;50.812;7.738;2023-11-21T10:22:05;7.50;99.90
3846;DHT22;1938;50.812;7.738;2023-11-21T10:24:32;7.70;99.90
3846;DHT22;1938;50.812;7.738;2023-11-21T10:26:59;8.00;99.90
3846;DHT22;1938;50.812;7.738;2023-11-21T10:29:29;8.20;99.90
3846;DHT22;1938;50.812;7.738;2023-11-21T10:31:55;8.50;99.90
3846;DHT22;1938;50.812;7.738;2023-11-21T10:34:23;8.80;99.90
3846;DHT22;1938;50.812;7.738;2023-11-21T10:36:48;9.00;99.90
3846;DHT22;1938;50.812;7.738;2023-11-21T10:39:17;9.10;99.90
3846;DHT22;1938;50.812;7.738;2023-11-21T10:41:45;9.20;99.90
3846;DHT22;1938;50.812;7.738;2023-11-21T10:44:13;9.30;99.90
3846;DHT22;1938;50.812;7.738;2023-11-21T10:46:40;9.40;99.90
3846;DHT22;1938;50.812;7.738;2023-11-21T10:49:06;9.40;99.90
3846;DHT22;1938;50.812;7.738;2023-11-21T10:51:32;9.50;99.90
3846;DHT22;1938;50.812;7.738;2023-11-21T10:53:59;9.60;99.90
3846;DHT22;1938;50.812;7.738;2023-11-21T10:56:26;9.70;99.90
3846;DHT22;1938;50.812;7.738;2023-11-21T10:58:53;9.80;99.90
3846;DHT22;1938;50.812;7.738;2023-11-21T11:01:19;9.90;99.90
3846;DHT22;1938;50.812;7.738;2023-11-21T11:03:47;10.00;99.90
3846;DHT22;1938;50.812;7.738;2023-11-21T11:06:14;10.00;99.90
3846;DHT22;1938;50.812;7.738;2023-11-21T11:08:40;10.10;99.90
3846;DHT22;1938;50.812;7.738;2023-11-21T11:11:06;10.20;99.90
3846;DHT22;1938;50.812;7.738;2023-11-21T11:13:32;10.20;99.90
3846;DHT22;1938;50.812;7.738;2023-11-21T11:15:59;10.20;99.90
3846;DHT22;1938;50.812;7.738;2023-11-21T11:18:29;10.30;99.90
3846;DHT22;1938;50.812;7.738;2023-11-21T11:21:07;10.30;99.90
3846;DHT22;1938;50.812;7.738;2023-11-21T11:23:44;10.30;99.90
3846;DHT22;1938;50.812;7.738;2023-11-21T11:26:33;10.30;99.90
3846;DHT22;1938;50.812;7.738;2023-11-21T11:29:10;10.30;99.90
3846;DHT22;1938;50.812;7.738;2023-11-21T11:34:45;10.30;99.90
3846;DHT22;1938;50.812;7.738;2023-11-21T11:37:12;10.30;99.90
3846;DHT22;1938;50.812;7.738;2023-11-21T11:39:41;9.60;99.90
3846;DHT22;1938;50.812;7.738;2023-11-21T11:42:12;9.00;99.90
3846;DHT22;1938;50.812;7.738;2023-11-21T11:47:32;8.50;99.90
3846;DHT22;1938;50.812;7.738;2023-11-21T11:50:00;8.40;99.90
3846;DHT22;1938;50.812;7.738;2023-11-21T11:52:47;8.30;99.90
3846;DHT22;1938;50.812;7.738;2023-11-21T11:55:15;8.40;99.90
3846;DHT22;1938;50.812;7.738;2023-11-21T11:57:46;8.40;99.90
3846;DHT22;1938;50.812;7.738;2023-11-21T12:02:56;8.40;99.90
3846;DHT22;1938;50.812;7.738;2023-11-21T12:05:27;8.40;99.90
3846;DHT22;1938;50.812;7.738;2023-11-21T12:07:54;8.50;99.90
3846;DHT22;1938;50.812;7.738;2023-11-21T12:10:30;8.50;99.90
3846;DHT22;1938;50.812;7.738;2023-11-21T12:13:05;8.50;99.90
3846;DHT22;1938;50.812;7.738;2023-11-21T12:15:35;8.50;99.90
3846;DHT22;1938;50.812;7.738;2023-11-21T12:18:03;8.50;99.90
3846;DHT22;1938;50.812;7.738;2023-11-21T12:20:29;8.50;99.90
3846;DHT22;1938;50.812;7.738;2023-11-21T12:22:57;8.50;99.90
3846;DHT22;1938;50.812;7.738;2023-11-21T12:25:30;8.50;99.90
3846;DHT22;1938;50.812;7.738;2023-11-21T12:28:01;8.50;99.90
3846;DHT22;1938;50.812;7.738;2023-11-21T12:30:32;8.60;99.90
3846;DHT22;1938;50.812;7.738;2023-11-21T12:33:01;8.70;99.90
3846;DHT22;1938;50.812;7.738;2023-11-21T12:35:32;8.80;99.90
3846;DHT22;1938;50.812;7.738;2023-11-21T12:38:02;8.80;99.90
3846;DHT22;1938;50.812;7.738;2023-11-21T12:40:29;8.80;99.90
3846;DHT22;1938;50.812;7.738;2023-11-21T12:42:56;8.90;99.90
3846;DHT22;1938;50.812;7.738;2023-11-21T12:45:23;8.90;99.90
3846;DHT22;1938;50.812;7.738;2023-11-21T12:47:54;8.90;99.90
3846;DHT22;1938;50.812;7.738;2023-11-21T12:50:25;8.80;99.90
3846;DHT22;1938;50.812;7.738;2023-11-21T12:52:57;8.80;99.90
3846;DHT22;1938;50.812;7.738;2023-11-21T12:55:23;8.80;99.90
3846;DHT22;1938;50.812;7.738;2023-11-21T12:57:50;8.90;99.90
3846;DHT22;1938;50.812;7.738;2023-11-21T13:00:34;8.90;99.90
3846;DHT22;1938;50.812;7.738;2023-11-21T13:03:03;8.90;99.90
3846;DHT22;1938;50.812;7.738;2023-11-21T13:05:37;9.00;99.90
3846;DHT22;1938;50.812;7.738;2023-11-21T13:08:08;9.00;99.90
3846;DHT22;1938;50.812;7.738;2023-11-21T13:10:40;8.90;99.90
3846;DHT22;1938;50.812;7.738;2023-11-21T13:13:08;8.90;99.90
3846;DHT22;1938;50.812;7.738;2023-11-21T13:15:35;8.80;99.90
3846;DHT22;1938;50.812;7.738;2023-11-21T13:18:03;8.80;99.90
3846;DHT22;1938;50.812;7.738;2023-11-21T13:20:29;8.80;99.90
3846;DHT22;1938;50.812;7.738;2023-11-21T13:22:56;8.80;99.90
3846;DHT22;1938;50.812;7.738;2023-11-21T13:25:28;8.80;99.90
3846;DHT22;1938;50.812;7.738;2023-11-21T13:27:54;8.80;99.90
3846;DHT22;1938;50.812;7.738;2023-11-21T13:30:20;8.80;99.90
3846;DHT22;1938;50.812;7.738;2023-11-21T13:32:55;8.90;99.90
3846;DHT22;1938;50.812;7.738;2023-11-21T13:35:28;8.80;99.90
3846;DHT22;1938;50.812;7.738;2023-11-21T13:38:07;8.80;99.90
3846;DHT22;1938;50.812;7.738;2023-11-21T13:40:35;8.80;99.90
3846;DHT22;1938;50.812;7.738;2023-11-21T13:43:16;8.80;99.90
3846;DHT22;1938;50.812;7.738;2023-11-21T13:45:44;8.80;99.90
3846;DHT22;1938;50.812;7.738;2023-11-21T13:48:10;8.70;99.90
3846;DHT22;1938;50.812;7.738;2023-11-21T13:50:46;8.70;99.90
3846;DHT22;1938;50.812;7.738;2023-11-21T13:53:23;8.70;99.90
3846;DHT22;1938;50.812;7.738;2023-11-21T13:55:50;8.70;99.90
3846;DHT22;1938;50.812;7.738;2023-11-21T13:58:16;8.60;99.90
3846;DHT22;1938;50.812;7.738;2023-11-21T14:00:49;8.60;99.90
3846;DHT22;1938;50.812;7.738;2023-11-21T14:03:38;8.70;99.90
3846;DHT22;1938;50.812;7.738;2023-11-21T14:06:10;8.50;99.90
3846;DHT22;1938;50.812;7.738;2023-11-21T14:08:40;8.60;99.90
3846;DHT22;1938;50.812;7.738;2023-11-21T14:11:08;8.60;99.90
3846;DHT22;1938;50.812;7.738;2023-11-21T14:13:36;8.70;99.90
3846;DHT22;1938;50.812;7.738;2023-11-21T14:16:03;8.70;99.90
3846;DHT22;1938;50.812;7.738;2023-11-21T14:18:31;8.60;99.90
3846;DHT22;1938;50.812;7.738;2023-11-21T14:21:04;8.50;99.90
3846;DHT22;1938;50.812;7.738;2023-11-21T14:23:31;8.50;99.90
3846;DHT22;1938;50.812;7.738;2023-11-21T14:25:58;8.50;99.90
3846;DHT22;1938;50.812;7.738;2023-11-21T14:28:26;8.60;99.90
3846;DHT22;1938;50.812;7.738;2023-11-21T14:30:52;8.50;99.90
3846;DHT22;1938;50.812;7.738;2023-11-21T14:33:17;8.50;99.90
3846;DHT22;1938;50.812;7.738;2023-11-21T14:35:44;8.50;99.90
3846;DHT22;1938;50.812;7.738;2023-11-21T14:38:10;8.50;99.90
3846;DHT22;1938;50.812;7.738;2023-11-21T14:40:36;8.50;99.90
3846;DHT22;1938;50.812;7.738;2023-11-21T14:43:03;8.40;99.90
3846;DHT22;1938;50.812;7.738;2023-11-21T14:45:32;8.40;99.90
3846;DHT22;1938;50.812;7.738;2023-11-21T14:47:58;8.40;99.90
3846;DHT22;1938;50.812;7.738;2023-11-21T14:50:30;8.40;99.90
3846;DHT22;1938;50.812;7.738;2023-11-21T14:53:17;8.40;99.90
3846;DHT22;1938;50.812;7.738;2023-11-21T14:56:03;8.50;99.90
3846;DHT22;1938;50.812;7.738;2023-11-21T14:58:29;8.40;99.90
3846;DHT22;1938;50.812;7.738;2023-11-21T15:00:56;8.40;99.90
3846;DHT22;1938;50.812;7.738;2023-11-21T15:03:26;8.40;99.90
3846;DHT22;1938;50.812;7.738;2023-11-21T15:06:02;8.30;99.90
3846;DHT22;1938;50.812;7.738;2023-11-21T15:08:51;8.30;99.90
3846;DHT22;1938;50.812;7.738;2023-11-21T15:11:46;8.30;99.90
3846;DHT22;1938;50.812;7.738;2023-11-21T15:14:12;8.20;99.90
3846;DHT22;1938;50.812;7.738;2023-11-21T15:16:46;8.20;99.90
3846;DHT22;1938;50.812;7.738;2023-11-21T15:19:16;8.20;99.90
3846;DHT22;1938;50.812;7.738;2023-11-21T15:21:44;8.20;99.90
3846;DHT22;1938;50.812;7.738;2023-11-21T15:24:12;8.30;99.90
3846;DHT22;1938;50.812;7.738;2023-11-21T15:26:38;8.30;99.90
3846;DHT22;1938;50.812;7.738;2023-11-21T15:29:04;8.30;99.90
3846;DHT22;1938;50.812;7.738;2023-11-21T15:31:30;8.20;99.90
3846;DHT22;1938;50.812;7.738;2023-11-21T15:33:55;8.20;99.90
3846;DHT22;1938;50.812;7.738;2023-11-21T15:36:25;8.20;99.90
3846;DHT22;1938;50.812;7.738;2023-11-21T15:38:53;8.30;99.90
3846;DHT22;1938;50.812;7.738;2023-11-21T15:41:19;8.30;99.90
3846;DHT22;1938;50.812;7.738;2023-11-21T15:43:45;8.30;99.90
3846;DHT22;1938;50.812;7.738;2023-11-21T15:46:13;8.30;99.90
3846;DHT22;1938;50.812;7.738;2023-11-21T15:48:38;8.30;99.90
3846;DHT22;1938;50.812;7.738;2023-11-21T15:51:09;8.20;99.90
3846;DHT22;1938;50.812;7.738;2023-11-21T15:53:37;8.20;99.90
3846;DHT22;1938;50.812;7.738;2023-11-21T15:56:04;8.20;99.90
3846;DHT22;1938;50.812;7.738;2023-11-21T15:58:30;8.10;99.90
3846;DHT22;1938;50.812;7.738;2023-11-21T16:00:56;8.20;99.90
3846;DHT22;1938;50.812;7.738;2023-11-21T16:03:23;8.20;99.90
3846;DHT22;1938;50.812;7.738;2023-11-21T16:05:49;8.10;99.90
3846;DHT22;1938;50.812;7.738;2023-11-21T16:08:14;8.10;99.90
3846;DHT22;1938;50.812;7.738;2023-11-21T16:10:40;8.10;99.90
3846;DHT22;1938;50.812;7.738;2023-11-21T16:13:06;8.00;99.90
3846;DHT22;1938;50.812;7.738;2023-11-21T16:15:33;8.10;99.90
3846;DHT22;1938;50.812;7.738;2023-11-21T16:17:59;8.10;99.90
3846;DHT22;1938;50.812;7.738;2023-11-21T16:20:25;8.00;99.90
3846;DHT22;1938;50.812;7.738;2023-11-21T16:22:51;8.00;99.90
3846;DHT22;1938;50.812;7.738;2023-11-21T16:25:17;8.00;99.90
3846;DHT22;1938;50.812;7.738;2023-11-21T16:27:42;8.10;99.90